Time,TemperatureF,DewpointF,PressureIn,WindDirection,WindDirectionDegrees,WindSpeedMPH,WindSpeedGustMPH,Humidity,HourlyPrecipIn,Conditions,Clouds,dailyrainin,SoftwareType,DateUTC
2013-04-04 00:01:00,58.0,49.0,29.98,WSW,258,1.0,2.0,71,0.00,,,0.00,,2013-04-04 07:01:00,
2013-04-04 00:12:00,58.0,49.0,29.98,WSW,258,1.0,2.0,71,0.00,,,0.00,,2013-04-04 07:12:00,
2013-04-04 00:21:00,57.0,48.0,29.99,WSW,258,1.0,3.0,72,0.00,,,0.00,,2013-04-04 07:21:00,
2013-04-04 00:31:00,57.0,48.0,29.99,WSW,237,1.0,3.0,73,0.00,,,0.00,,2013-04-04 07:31:00,
2013-04-04 00:42:00,57.0,48.0,29.99,WSW,237,1.0,3.0,73,0.00,,,0.00,,2013-04-04 07:42:00,
2013-04-04 00:52:00,57.0,49.0,29.98,WSW,248,0.0,4.0,74,0.00,,,0.00,,2013-04-04 07:52:00,
2013-04-04 01:01:00,57.0,49.0,29.99,West,261,1.0,3.0,74,0.00,,,0.00,,2013-04-04 08:01:00,
2013-04-04 01:11:00,57.0,49.0,29.99,West,261,1.0,3.0,74,0.00,,,0.00,,2013-04-04 08:11:00,
2013-04-04 01:22:00,57.0,49.0,29.99,West,261,1.0,3.0,75,0.00,,,0.00,,2013-04-04 08:22:00,
2013-04-04 01:32:00,57.0,49.0,29.99,West,262,1.0,2.0,75,0.00,,,0.00,,2013-04-04 08:32:00,
2013-04-04 01:42:00,57.0,49.0,29.99,West,262,1.0,2.0,75,0.00,,,0.00,,2013-04-04 08:42:00,
2013-04-04 01:52:00,57.0,50.0,29.98,WSW,245,1.0,3.0,77,0.00,,,0.00,,2013-04-04 08:52:00,
2013-04-04 02:02:00,56.0,50.0,29.99,SSW,202,2.0,4.0,80,0.00,,,0.00,,2013-04-04 09:02:00,
2013-04-04 02:12:00,56.0,50.0,29.99,SSW,202,2.0,4.0,80,0.00,,,0.00,,2013-04-04 09:12:00,
2013-04-04 02:22:00,56.0,50.0,29.99,SSW,202,0.0,2.0,81,0.00,,,0.00,,2013-04-04 09:22:00,
2013-04-04 02:32:00,56.0,50.0,29.99,WNW,286,2.0,3.0,80,0.00,,,0.00,,2013-04-04 09:32:00,
2013-04-04 02:42:00,56.0,50.0,29.99,WNW,286,2.0,3.0,80,0.00,,,0.00,,2013-04-04 09:42:00,
2013-04-04 02:53:00,56.0,50.0,29.98,WNW,296,1.0,4.0,80,0.00,,,0.00,,2013-04-04 09:53:00,
2013-04-04 03:03:00,56.0,50.0,29.97,WNW,296,0.0,1.0,80,0.00,,,0.00,,2013-04-04 10:03:00,
2013-04-04 03:12:00,56.0,50.0,29.97,WNW,296,0.0,1.0,80,0.00,,,0.00,,2013-04-04 10:12:00,
2013-04-04 03:23:00,56.0,50.0,29.98,WNW,295,1.0,2.0,80,0.00,,,0.00,,2013-04-04 10:23:00,
2013-04-04 03:32:00,56.0,50.0,29.97,WNW,295,0.0,0.0,80,0.00,,,0.00,,2013-04-04 10:32:00,
2013-04-04 03:42:00,56.0,50.0,29.97,WNW,295,0.0,0.0,80,0.00,,,0.00,,2013-04-04 10:42:00,
2013-04-04 03:53:00,56.0,50.0,29.97,SW,218,1.0,3.0,79,0.01,,,0.01,,2013-04-04 10:53:00,
2013-04-04 04:02:00,56.0,49.0,29.96,WNW,288,4.0,5.0,77,0.02,,,0.02,,2013-04-04 11:02:00,
2013-04-04 04:12:00,56.0,49.0,29.96,WNW,288,4.0,5.0,77,0.02,,,0.02,,2013-04-04 11:12:00,
2013-04-04 04:21:00,56.0,50.0,29.96,WNW,290,3.0,7.0,80,0.03,,,0.03,,2013-04-04 11:21:00,
2013-04-04 04:32:00,55.0,50.0,29.97,WSW,254,1.0,4.0,82,0.04,,,0.04,,2013-04-04 11:32:00,
2013-04-04 04:42:00,55.0,50.0,29.97,WSW,254,1.0,4.0,82,0.04,,,0.04,,2013-04-04 11:42:00,
2013-04-04 04:53:00,54.0,48.0,29.98,WSW,249,5.0,10.0,80,0.03,,,0.04,,2013-04-04 11:53:00,
2013-04-04 05:02:00,53.0,47.0,30.00,West,267,6.0,12.0,79,0.03,,,0.05,,2013-04-04 12:02:00,
2013-04-04 05:12:00,53.0,47.0,30.00,West,267,6.0,12.0,79,0.03,,,0.05,,2013-04-04 12:12:00,
2013-04-04 05:22:00,53.0,48.0,30.01,WSW,244,5.0,12.0,84,0.05,,,0.08,,2013-04-04 12:22:00,
2013-04-04 05:32:00,53.0,49.0,30.00,West,259,3.0,8.0,85,0.06,,,0.10,,2013-04-04 12:32:00,
2013-04-04 05:42:00,53.0,49.0,30.00,West,259,3.0,8.0,85,0.06,,,0.10,,2013-04-04 12:42:00,
2013-04-04 05:52:00,53.0,49.0,29.99,SSW,198,3.0,4.0,86,0.07,,,0.11,,2013-04-04 12:52:00,
2013-04-04 06:02:00,52.0,48.0,29.98,SSW,202,1.0,3.0,86,0.07,,,0.12,,2013-04-04 13:02:00,
2013-04-04 06:12:00,52.0,48.0,29.98,SSW,202,1.0,3.0,86,0.07,,,0.12,,2013-04-04 13:12:00,
2013-04-04 06:22:00,52.0,48.0,29.99,West,267,1.0,3.0,87,0.04,,,0.12,,2013-04-04 13:22:00,
2013-04-04 06:32:00,52.0,48.0,29.99,West,271,1.0,3.0,86,0.02,,,0.12,,2013-04-04 13:32:00,
2013-04-04 06:42:00,52.0,48.0,29.99,West,271,1.0,3.0,86,0.02,,,0.12,,2013-04-04 13:42:00,
2013-04-04 06:52:00,52.0,48.0,29.99,West,271,1.0,2.0,87,0.01,,,0.12,,2013-04-04 13:52:00,
2013-04-04 07:02:00,52.0,48.0,29.99,West,271,1.0,2.0,87,0.00,,,0.12,,2013-04-04 14:02:00,
2013-04-04 07:12:00,52.0,48.0,29.99,West,271,1.0,2.0,87,0.00,,,0.12,,2013-04-04 14:12:00,
2013-04-04 07:22:00,52.0,48.0,30.00,NE,47,1.0,4.0,87,0.01,,,0.13,,2013-04-04 14:22:00,
2013-04-04 07:32:00,53.0,49.0,30.01,NE,47,0.0,2.0,87,0.01,,,0.13,,2013-04-04 14:32:00,
2013-04-04 07:42:00,53.0,49.0,30.01,NE,47,0.0,2.0,87,0.01,,,0.13,,2013-04-04 14:42:00,
2013-04-04 07:52:00,53.0,49.0,30.02,ENE,67,1.0,2.0,87,0.01,,,0.13,,2013-04-04 14:52:00,
2013-04-04 08:01:00,53.0,49.0,30.03,ENE,63,1.0,3.0,87,0.01,,,0.13,,2013-04-04 15:01:00,
2013-04-04 08:12:00,53.0,49.0,30.03,ENE,63,1.0,3.0,87,0.01,,,0.13,,2013-04-04 15:12:00,
2013-04-04 08:22:00,53.0,49.0,30.03,NE,54,0.0,3.0,87,0.00,,,0.13,,2013-04-04 15:22:00,
2013-04-04 08:32:00,54.0,51.0,30.03,ENE,63,1.0,3.0,88,0.00,,,0.13,,2013-04-04 15:32:00,
2013-04-04 08:42:00,54.0,51.0,30.03,ENE,63,1.0,3.0,88,0.00,,,0.13,,2013-04-04 15:42:00,
2013-04-04 08:53:00,54.0,50.0,30.03,NNE,28,0.0,3.0,87,0.00,,,0.13,,2013-04-04 15:53:00,
2013-04-04 09:02:00,55.0,51.0,30.04,NNE,28,1.0,2.0,86,0.00,,,0.13,,2013-04-04 16:02:00,
2013-04-04 09:12:00,55.0,51.0,30.04,NNE,28,1.0,2.0,86,0.00,,,0.13,,2013-04-04 16:12:00,
2013-04-04 09:23:00,56.0,52.0,30.05,NNE,28,1.0,3.0,86,0.00,,,0.13,,2013-04-04 16:23:00,
2013-04-04 09:32:00,56.0,52.0,30.05,NNE,28,1.0,3.0,85,0.00,,,0.13,,2013-04-04 16:32:00,
2013-04-04 09:42:00,56.0,52.0,30.05,NNE,28,1.0,3.0,85,0.00,,,0.13,,2013-04-04 16:42:00,
2013-04-04 09:53:00,57.0,53.0,30.05,NNE,28,0.0,1.0,85,0.00,,,0.13,,2013-04-04 16:53:00,
2013-04-04 10:02:00,57.0,53.0,30.06,NNE,25,2.0,3.0,85,0.00,,,0.13,,2013-04-04 17:02:00,
2013-04-04 10:12:00,57.0,53.0,30.06,NNE,25,2.0,3.0,85,0.00,,,0.13,,2013-04-04 17:12:00,
2013-04-04 10:22:00,57.0,53.0,30.06,NNE,25,2.0,3.0,86,0.00,,,0.13,,2013-04-04 17:22:00,
2013-04-04 10:32:00,58.0,54.0,30.06,NNE,23,1.0,3.0,87,0.00,,,0.13,,2013-04-04 17:32:00,
2013-04-04 10:42:00,58.0,54.0,30.06,NNE,23,1.0,3.0,87,0.00,,,0.13,,2013-04-04 17:42:00,
2013-04-04 10:52:00,58.0,54.0,30.06,West,273,1.0,3.0,86,0.00,,,0.13,,2013-04-04 17:52:00,
2013-04-04 11:02:00,59.0,55.0,30.07,West,281,1.0,2.0,87,0.00,,,0.13,,2013-04-04 18:02:00,
2013-04-04 11:12:00,59.0,55.0,30.07,West,281,1.0,2.0,87,0.00,,,0.13,,2013-04-04 18:12:00,
2013-04-04 11:22:00,59.0,55.0,30.07,WNW,298,0.0,3.0,86,0.00,,,0.13,,2013-04-04 18:22:00,
2013-04-04 11:32:00,61.0,56.0,30.07,WSW,242,2.0,5.0,85,0.00,,,0.13,,2013-04-04 18:32:00,
2013-04-04 11:42:00,61.0,56.0,30.07,WSW,242,2.0,5.0,85,0.00,,,0.13,,2013-04-04 18:42:00,
2013-04-04 11:52:00,62.0,57.0,30.07,West,269,3.0,7.0,84,0.00,,,0.13,,2013-04-04 18:52:00,
2013-04-04 12:02:00,62.0,56.0,30.07,WSW,254,2.0,8.0,82,0.00,,,0.13,,2013-04-04 19:02:00,
2013-04-04 12:12:00,62.0,56.0,30.07,WSW,254,2.0,8.0,82,0.00,,,0.13,,2013-04-04 19:12:00,
2013-04-04 12:21:00,63.0,56.0,30.06,WSW,245,3.0,7.0,79,0.00,,,0.13,,2013-04-04 19:21:00,
2013-04-04 12:32:00,64.0,56.0,30.06,WSW,253,4.0,9.0,75,0.00,,,0.13,,2013-04-04 19:32:00,
2013-04-04 12:42:00,64.0,56.0,30.06,WSW,253,4.0,9.0,75,0.00,,,0.13,,2013-04-04 19:42:00,
2013-04-04 12:52:00,64.0,55.0,30.06,West,265,6.0,10.0,72,0.00,,,0.13,,2013-04-04 19:52:00,
2013-04-04 13:02:00,65.0,55.0,30.06,WNW,286,5.0,10.0,69,0.00,,,0.13,,2013-04-04 20:02:00,
2013-04-04 13:12:00,65.0,55.0,30.06,WNW,286,5.0,10.0,69,0.00,,,0.13,,2013-04-04 20:12:00,
2013-04-04 13:22:00,66.0,55.0,30.06,WSW,244,4.0,10.0,67,0.00,,,0.13,,2013-04-04 20:22:00,
2013-04-04 13:32:00,67.0,54.0,30.06,SSW,206,6.0,12.0,63,0.00,,,0.13,,2013-04-04 20:32:00,
2013-04-04 13:42:00,67.0,54.0,30.06,SSW,206,6.0,12.0,63,0.00,,,0.13,,2013-04-04 20:42:00,
2013-04-04 13:52:00,67.0,55.0,30.06,WSW,255,5.0,11.0,65,0.00,,,0.13,,2013-04-04 20:52:00,
2013-04-04 14:02:00,67.0,54.0,30.06,SW,235,5.0,10.0,63,0.00,,,0.13,,2013-04-04 21:02:00,
2013-04-04 14:11:00,67.0,54.0,30.06,SW,235,5.0,10.0,63,0.00,,,0.13,,2013-04-04 21:11:00,
2013-04-04 14:22:00,69.0,55.0,30.06,SSW,202,4.0,10.0,60,0.00,,,0.13,,2013-04-04 21:22:00,
2013-04-04 14:32:00,68.0,54.0,30.05,SW,231,3.0,11.0,62,0.00,,,0.13,,2013-04-04 21:32:00,
2013-04-04 14:42:00,68.0,54.0,30.05,SW,231,3.0,11.0,62,0.00,,,0.13,,2013-04-04 21:42:00,
2013-04-04 14:53:00,69.0,55.0,30.04,SSW,193,5.0,11.0,60,0.00,,,0.13,,2013-04-04 21:53:00,
2013-04-04 15:02:00,69.0,55.0,30.04,SW,229,4.0,11.0,60,0.00,,,0.13,,2013-04-04 22:02:00,
2013-04-04 15:12:00,69.0,55.0,30.04,SW,229,4.0,11.0,60,0.00,,,0.13,,2013-04-04 22:12:00,
2013-04-04 15:22:00,69.0,55.0,30.04,West,261,5.0,14.0,61,0.00,,,0.13,,2013-04-04 22:22:00,
2013-04-04 15:32:00,70.0,55.0,30.03,South,187,6.0,13.0,58,0.00,,,0.13,,2013-04-04 22:32:00,
2013-04-04 15:42:00,70.0,55.0,30.03,South,187,6.0,13.0,58,0.00,,,0.13,,2013-04-04 22:42:00,
2013-04-04 15:53:00,68.0,54.0,30.04,SSW,209,6.0,10.0,60,0.00,,,0.13,,2013-04-04 22:53:00,
2013-04-04 16:02:00,68.0,54.0,30.04,SSW,209,3.0,10.0,60,0.00,,,0.13,,2013-04-04 23:02:00,
2013-04-04 16:12:00,68.0,54.0,30.04,SSW,209,3.0,10.0,60,0.00,,,0.13,,2013-04-04 23:12:00,
2013-04-04 16:22:00,67.0,54.0,30.04,WSW,242,5.0,11.0,62,0.00,,,0.13,,2013-04-04 23:22:00,
2013-04-04 16:31:00,67.0,53.0,30.04,South,186,5.0,11.0,60,0.00,,,0.13,,2013-04-04 23:31:00,
2013-04-04 16:42:00,67.0,53.0,30.04,South,186,5.0,11.0,60,0.00,,,0.13,,2013-04-04 23:42:00,
2013-04-04 16:52:00,67.0,54.0,30.04,West,271,8.0,13.0,63,0.00,,,0.13,,2013-04-04 23:52:00,
2013-04-04 17:01:00,66.0,55.0,30.04,West,261,6.0,15.0,68,0.00,,,0.13,,2013-04-05 00:01:00,
2013-04-04 17:11:00,66.0,55.0,30.04,West,261,6.0,15.0,68,0.00,,,0.13,,2013-04-05 00:11:00,
2013-04-04 17:22:00,65.0,54.0,30.05,WSW,246,7.0,13.0,68,0.00,,,0.13,,2013-04-05 00:22:00,
2013-04-04 17:32:00,66.0,55.0,30.05,West,277,8.0,16.0,67,0.00,,,0.13,,2013-04-05 00:32:00,
2013-04-04 17:42:00,66.0,55.0,30.05,West,277,8.0,16.0,67,0.00,,,0.13,,2013-04-05 00:42:00,
2013-04-04 17:52:00,66.0,54.0,30.04,WNW,290,8.0,13.0,66,0.00,,,0.13,,2013-04-05 00:52:00,
2013-04-04 18:02:00,66.0,55.0,30.04,West,275,5.0,13.0,67,0.00,,,0.13,,2013-04-05 01:02:00,
2013-04-04 18:12:00,66.0,55.0,30.04,West,275,5.0,13.0,67,0.00,,,0.13,,2013-04-05 01:12:00,
2013-04-04 18:22:00,65.0,54.0,30.04,SSW,213,5.0,9.0,67,0.00,,,0.13,,2013-04-05 01:22:00,
2013-04-04 18:32:00,65.0,54.0,30.04,SW,227,6.0,11.0,67,0.00,,,0.13,,2013-04-05 01:32:00,
2013-04-04 18:42:00,65.0,54.0,30.04,SW,227,6.0,11.0,67,0.00,,,0.13,,2013-04-05 01:42:00,
2013-04-04 18:53:00,64.0,53.0,30.04,WNW,288,5.0,12.0,68,0.00,,,0.13,,2013-04-05 01:53:00,
2013-04-04 19:02:00,63.0,53.0,30.04,West,265,7.0,11.0,71,0.00,,,0.13,,2013-04-05 02:02:00,
2013-04-04 19:11:00,63.0,53.0,30.04,West,265,7.0,11.0,71,0.00,,,0.13,,2013-04-05 02:11:00,
2013-04-04 19:22:00,62.0,52.0,30.04,WNW,284,5.0,11.0,71,0.00,,,0.13,,2013-04-05 02:22:00,
2013-04-04 19:32:00,61.0,53.0,30.05,West,271,7.0,13.0,74,0.00,,,0.13,,2013-04-05 02:32:00,
2013-04-04 19:42:00,61.0,53.0,30.05,West,271,7.0,13.0,74,0.00,,,0.13,,2013-04-05 02:42:00,
2013-04-04 19:52:00,60.0,52.0,30.05,WNW,287,7.0,11.0,76,0.00,,,0.13,,2013-04-05 02:52:00,
2013-04-04 20:01:00,60.0,52.0,30.05,West,275,7.0,11.0,76,0.00,,,0.13,,2013-04-05 03:01:00,
2013-04-04 20:11:00,60.0,52.0,30.05,West,275,7.0,11.0,76,0.00,,,0.13,,2013-04-05 03:11:00,
2013-04-04 20:22:00,60.0,53.0,30.06,NW,305,6.0,12.0,77,0.00,,,0.13,,2013-04-05 03:22:00,
2013-04-04 20:32:00,59.0,52.0,30.06,West,269,5.0,10.0,77,0.00,,,0.13,,2013-04-05 03:32:00,
2013-04-04 20:42:00,59.0,52.0,30.06,West,269,5.0,10.0,77,0.00,,,0.13,,2013-04-05 03:42:00,
2013-04-04 20:53:00,59.0,52.0,30.06,West,275,4.0,9.0,78,0.00,,,0.13,,2013-04-05 03:53:00,
2013-04-04 21:02:00,59.0,52.0,30.07,WNW,283,5.0,12.0,79,0.00,,,0.13,,2013-04-05 04:02:00,
2013-04-04 21:12:00,59.0,52.0,30.07,WNW,283,5.0,12.0,79,0.00,,,0.13,,2013-04-05 04:12:00,
2013-04-04 21:22:00,59.0,53.0,30.07,WSW,257,3.0,8.0,80,0.00,,,0.13,,2013-04-05 04:22:00,
2013-04-04 21:32:00,59.0,52.0,30.07,West,265,4.0,11.0,79,0.00,,,0.13,,2013-04-05 04:32:00,
2013-04-04 21:42:00,59.0,52.0,30.07,West,265,4.0,11.0,79,0.00,,,0.13,,2013-04-05 04:42:00,
2013-04-04 21:52:00,58.0,52.0,30.08,WNW,287,4.0,9.0,79,0.00,,,0.13,,2013-04-05 04:52:00,
2013-04-04 22:02:00,59.0,52.0,30.08,WSW,249,3.0,8.0,79,0.00,,,0.13,,2013-04-05 05:02:00,
2013-04-04 22:12:00,59.0,52.0,30.08,WSW,249,3.0,8.0,79,0.00,,,0.13,,2013-04-05 05:12:00,
2013-04-04 22:22:00,59.0,52.0,30.08,WNW,282,4.0,8.0,79,0.00,,,0.13,,2013-04-05 05:22:00,
2013-04-04 22:31:00,58.0,52.0,30.09,WNW,284,3.0,9.0,79,0.00,,,0.13,,2013-04-05 05:31:00,
2013-04-04 22:42:00,58.0,52.0,30.09,WNW,284,3.0,9.0,79,0.00,,,0.13,,2013-04-05 05:42:00,
2013-04-04 22:52:00,58.0,52.0,30.09,WNW,287,3.0,6.0,79,0.00,,,0.13,,2013-04-05 05:52:00,
2013-04-04 23:02:00,58.0,52.0,30.09,WSW,258,4.0,8.0,80,0.00,,,0.13,,2013-04-05 06:02:00,
2013-04-04 23:12:00,58.0,52.0,30.09,WSW,258,4.0,8.0,80,0.00,,,0.13,,2013-04-05 06:12:00,
2013-04-04 23:22:00,58.0,52.0,30.08,WSW,242,3.0,6.0,80,0.00,,,0.13,,2013-04-05 06:22:00,
2013-04-04 23:32:00,58.0,52.0,30.08,West,277,4.0,9.0,81,0.00,,,0.13,,2013-04-05 06:32:00,
2013-04-04 23:42:00,58.0,52.0,30.08,West,277,4.0,9.0,81,0.00,,,0.13,,2013-04-05 06:42:00,
2013-04-04 23:52:00,58.0,53.0,30.09,WSW,256,3.0,8.0,82,0.00,,,0.13,,2013-04-05 06:52:00,